Aurora, CO (80018)

9:53 AM MDT on May 03, 2015 (GMT -0600)
Thunderbird Estates | | Change Station
CLOSE
Current Station
Personal Weather Station
Location: Aurora, CO
Elevation: 5617 ft
Nearby Weather Stations

Elev 5617 ft 39.71 °N, 104.70 °W | Updated 9 minutes ago

Mostly Cloudy
Mostly Cloudy
79.3 °F
Feels Like 79 °F
N
1.7
Wind Variable Wind from East

Today
High -- | Low -- °F
--% Chance of Precip.
Yesterday
High -- | Low -- °F
Precip. -- in
5:57 AM 7:54 PM
Full, 100% visible
Pressure 29.82 in
Visibility 10.0 miles
Clouds Few 8000 ft
Scattered Clouds 14000 ft
Mostly Cloudy 22000 ft
Heat Index 79 °F
Dew Point 44 °F
Humidity 29%
Rainfall 0.00 in
Snow Depth Not available.
UV 2 out of 12
Pollen 9.90 out of 12
Air Quality Not available.
Flu Activity Sporadic
METAR KBKF 031458Z 21007KT 10SM FEW080 SCT140 BKN220 18/04 A2999 RMK AO2A SLP098 T01840041 52014

More Conditions Fewer Conditions

Pressure 29.82 in
Visibility 10.0 miles
Clouds Few 8000 ft
Scattered Clouds 14000 ft
Mostly Cloudy 22000 ft
Heat Index 79 °F
Dew Point 44 °F
Humidity 29%
Rainfall 0.00 in
Snow Depth Not available.
UV 2 out of 12
Pollen 9.90 out of 12
Air Quality Not available.
Flu Activity Sporadic
METAR KBKF 031458Z 21007KT 10SM FEW080 SCT140 BKN220 18/04 A2999 RMK AO2A SLP098 T01840041 52014

More Conditions Fewer Conditions

Nepal has a long way to go to dig out and rebuild from a devastating earthquake. We have teamed up with several charities and organizations to make contributing to the relief effort as easy as possible.
How you can help: Portlight Strategies | Red Cross

10-Day Weather Forecast

Almanac

Astronomy

May. 03, 2015 Rise Set
Actual Time
Civil Twilight
Nautical Twilight
Astronomical Twilight
Moon
Length of Visible Light
Length of Day
Tomorrow will be .
, % of the Moon is Illuminated

Today's Extremes

State Highs State Lows

Community

WunderPhotos

Upload Photos

1,818,256 photos uploaded!

WunderBlogs® & News

Nearby

Air Quality

  Air Quality AQ Index Pollutant
Not available.

Snow Depth

Station Depth Elevation

Earthquake Activity

City Distance Mag. Time & Date
Minimum magnitude displayed is 2.5.

Coastal Water Temperatures

Place Temperature

Stations

Nearby Weather Stations

Station Location Temp. Windchill Dew Point Humidity Wind Precip. Elev Updated Type